EST,Max TemperatureF,Mean TemperatureF,Min TemperatureF,Max Dew PointF,MeanDew PointF,Min DewpointF,Max Humidity, Mean Humidity, Min Humidity, Max Sea Level PressureIn, Mean Sea Level PressureIn, Min Sea Level PressureIn, Max VisibilityMiles, Mean VisibilityMiles, Min VisibilityMiles, Max Wind SpeedMPH, Mean Wind SpeedMPH, Max Gust SpeedMPH,PrecipitationIn, CloudCover, Events, WindDirDegrees
2012-12-1,31,20,8,27,17,5,88,82,75,30.63,30.55,30.42,10,7,2,13,3,17,0.01,8,Snow,173
2012-12-2,47,39,31,45,35,27,100,88,76,30.41,30.10,29.92,10,7,2,13,4,17,0.54,7,Rain,174
2012-12-3,48,42,35,43,36,32,92,84,76,30.30,30.16,29.95,10,10,6,16,4,21,0.02,8,Rain,306
2012-12-4,48,41,33,45,39,31,92,84,76,30.28,30.06,29.83,10,9,2,12,4,16,0.09,6,Rain,184
2012-12-5,49,38,27,46,31,16,93,77,61,30.24,29.99,29.84,10,6,1,21,8,31,0.42,8,Rain-Snow,315
2012-12-6,31,26,20,20,16,13,84,69,53,30.41,30.32,30.24,10,10,10,20,5,32,0.00,3,,347
2012-12-7,37,30,23,26,21,18,81,63,44,30.21,30.10,30.04,10,10,9,9,3,15,0.00,4,,184
2012-12-8,45,36,27,36,31,24,92,85,78,30.05,29.92,29.81,10,10,6,6,1,10,0.02,8,Snow,157
2012-12-9,45,37,28,36,26,23,85,75,64,30.35,30.23,30.00,10,9,2,16,5,23,0.01,6,Rain-Snow,355
2012-12-10,43,36,29,41,35,27,100,91,82,30.08,29.68,29.48,10,6,1,16,3,24,0.90,8,Rain-Snow,218
2012-12-11,37,29,20,36,23,17,92,83,74,30.21,29.88,29.59,10,7,2,16,6,23,0.01,8,Rain-Snow,360
2012-12-12,36,26,16,26,20,13,92,74,56,30.40,30.33,30.21,10,10,8,10,2,14,0.00,5,,213
2012-12-13,38,31,23,27,24,20,88,68,48,30.47,30.39,30.25,10,9,4,8,1,10,T,4,Snow,10
2012-12-14,39,29,19,29,24,17,92,71,50,30.24,30.16,30.07,10,9,6,15,2,18,T,6,,315
2012-12-15,31,23,15,21,11,-4,80,52,24,30.42,30.35,30.22,10,10,10,13,5,17,0.00,1,,8
2012-12-16,28,22,15,22,19,9,88,76,63,30.34,30.17,30.06,10,5,0,9,2,15,0.10,7,Fog-Snow,170
2012-12-17,35,32,28,32,26,21,96,86,75,30.07,29.98,29.86,10,5,1,10,5,22,0.19,8,Rain-Snow,189
2012-12-18,37,35,33,36,33,30,100,95,89,29.83,29.54,29.48,10,3,0,6,0,7,0.56,8,Fog-Rain,328
2012-12-19,35,34,32,32,30,28,96,86,75,30.12,29.79,29.51,10,6,1,13,5,22,0.01,8,Rain-Snow,14
2012-12-20,35,32,29,27,26,25,92,78,64,30.25,30.14,29.96,10,10,10,15,4,22,0.00,8,,40
2012-12-21,46,40,33,41,33,28,89,80,70,29.92,29.40,28.95,10,6,1,23,7,37,0.61,8,Rain-Snow,173
2012-12-22,37,29,20,30,18,11,89,74,58,29.69,29.41,29.08,10,4,0,16,6,26,0.02,8,Snow,267
2012-12-23,27,21,15,25,17,8,92,80,67,29.87,29.76,29.65,10,5,1,17,5,28,0.06,8,Snow,336
2012-12-24,28,21,13,16,13,10,92,74,55,30.10,30.01,29.84,10,8,2,16,4,21,T,6,Snow,294
2012-12-25,24,16,8,14,10,5,92,77,62,30.38,30.20,30.06,10,10,9,13,3,20,0.00,4,,12
2012-12-26,23,12,0,13,6,-4,91,75,59,30.43,30.31,30.05,10,9,5,8,2,12,0.00,3,,342
2012-12-27,26,23,19,23,19,12,92,83,73,30.03,29.77,29.64,10,4,0,14,6,21,0.60,8,Fog-Snow,357
2012-12-28,25,16,7,19,16,4,96,89,81,30.07,29.97,29.78,10,8,2,15,5,23,T,7,Snow,355
2012-12-29,23,12,1,20,14,-2,92,86,80,30.06,29.82,29.58,10,4,0,6,1,7,0.18,7,Fog-Snow,336
2012-12-30,22,16,9,18,7,3,92,80,67,30.10,29.82,29.56,10,5,2,17,7,28,0.01,8,Snow,343
2012-12-31,30,21,12,27,17,6,92,81,69,30.07,29.90,29.63,10,6,2,12,3,15,0.01,8,Snow,164